createdAt,value
2019-04-29T00:01:13.099Z,10.59
2019-04-29T00:02:05.422Z,10.49
2019-04-29T00:03:23.839Z,10.59
2019-04-29T00:04:16.143Z,10.56
2019-04-29T00:04:42.301Z,10.59
2019-04-29T00:05:34.584Z,10.59
2019-04-29T00:06:26.863Z,10.51
2019-04-29T00:06:52.996Z,10.49
2019-04-29T00:07:45.280Z,10.4
2019-04-29T00:09:05.351Z,10.44
2019-04-29T00:10:23.173Z,10.42
2019-04-29T00:11:15.451Z,10.49
2019-04-29T00:12:33.878Z,10.44
2019-04-29T00:13:26.155Z,10.4
2019-04-29T00:13:52.282Z,10.41
2019-04-29T00:14:44.602Z,10.42
2019-04-29T00:15:36.899Z,10.4
2019-04-29T00:16:03.045Z,10.42
2019-04-29T00:16:55.347Z,10.4
2019-04-29T00:18:13.810Z,10.46
2019-04-29T00:19:06.055Z,10.35
2019-04-29T00:19:32.191Z,10.33
2019-04-29T00:20:24.475Z,10.34
2019-04-29T00:21:16.756Z,10.28
2019-04-29T00:21:42.895Z,10.28
2019-04-29T00:22:35.212Z,10.44
2019-04-29T00:24:03.500Z,10.44
2019-04-29T00:24:46.908Z,10.44
2019-04-29T00:25:13.071Z,10.41
2019-04-29T00:26:05.357Z,10.37
2019-04-29T00:27:23.766Z,10.28
2019-04-29T00:28:16.051Z,10.38
2019-04-29T00:28:42.235Z,10.34
2019-04-29T00:29:34.521Z,10.38
2019-04-29T00:30:28.213Z,10.38
2019-04-29T00:30:54.990Z,10.37
2019-04-29T00:31:47.244Z,10.19
2019-04-29T00:32:13.378Z,10.3
2019-04-29T00:33:05.668Z,10.23
2019-04-29T00:33:58.015Z,10.25
2019-04-29T00:34:24.096Z,10.22
2019-04-29T00:35:16.368Z,10.23
2019-04-29T00:36:34.813Z,10.34
2019-04-29T00:37:27.100Z,10.38
2019-04-29T00:37:53.230Z,10.33
2019-04-29T00:38:45.573Z,10.38
2019-04-29T00:39:37.854Z,10.3
2019-04-29T00:40:03.990Z,10.37
2019-04-29T00:40:56.276Z,10.48
2019-04-29T00:42:14.685Z,10.35
2019-04-29T00:43:06.971Z,10.38
2019-04-29T00:43:33.118Z,10.37
2019-04-29T00:44:25.419Z,10.34
2019-04-29T00:45:17.708Z,10.25
2019-04-29T00:45:43.864Z,10.31
2019-04-29T00:46:36.148Z,10.3
2019-04-29T00:47:54.589Z,10.35
2019-04-29T00:48:46.871Z,10.28
2019-04-29T00:49:13.000Z,10.34
2019-04-29T00:50:05.276Z,10.3
2019-04-29T00:50:57.586Z,10.33
2019-04-29T00:51:23.724Z,10.3
2019-04-29T00:52:16.007Z,10.37
2019-04-29T00:53:34.458Z,10.3
2019-04-29T00:54:26.739Z,10.35
2019-04-29T00:55:45.199Z,10.37
2019-04-29T00:56:37.482Z,10.4
2019-04-29T00:57:03.623Z,10.37
2019-04-29T00:57:55.927Z,10.44
2019-04-29T00:59:14.364Z,10.44
2019-04-29T01:00:06.648Z,10.42
2019-04-29T01:01:25.059Z,10.46
2019-04-29T01:02:17.347Z,10.42
2019-04-29T01:02:43.531Z,10.41
2019-04-29T01:03:35.819Z,10.44
2019-04-29T01:04:28.093Z,10.44
2019-04-29T01:04:54.229Z,10.46
2019-04-29T01:05:46.513Z,10.41
2019-04-29T01:07:05.009Z,10.44
2019-04-29T01:07:57.298Z,10.44
2019-04-29T01:08:23.437Z,10.4
2019-04-29T01:09:15.721Z,10.42
2019-04-29T01:10:08.006Z,10.41
2019-04-29T01:10:34.137Z,10.4
2019-04-29T01:11:26.417Z,10.42
2019-04-29T01:12:44.859Z,10.41
2019-04-29T01:13:37.148Z,10.41
2019-04-29T01:14:03.282Z,10.46
2019-04-29T01:14:55.571Z,10.46
2019-04-29T01:15:47.849Z,10.46
2019-04-29T01:16:13.979Z,10.48
2019-04-29T01:17:06.257Z,10.42
2019-04-29T01:18:24.684Z,10.42
2019-04-29T01:19:16.960Z,10.44
2019-04-29T01:19:43.097Z,10.37
2019-04-29T01:20:35.376Z,10.31
2019-04-29T01:21:27.667Z,10.3
2019-04-29T01:21:53.815Z,10.35
2019-04-29T01:22:46.091Z,10.28
2019-04-29T01:24:04.519Z,10.26
2019-04-29T01:24:56.810Z,10.28
2019-04-29T01:26:15.251Z,10.31
2019-04-29T01:27:07.534Z,10.2
2019-04-29T01:27:33.668Z,10.07
2019-04-29T01:28:25.981Z,10.1
2019-04-29T01:28:53.116Z,10.05
2019-04-29T01:29:45.386Z,10.07
2019-04-29T01:30:37.685Z,10.01
2019-04-29T01:31:03.816Z,9.95
2019-04-29T01:31:56.108Z,9.97
2019-04-29T01:33:14.524Z,10.09
2019-04-29T01:34:06.809Z,10.05
2019-04-29T01:35:25.214Z,10.13
2019-04-29T01:36:17.498Z,9.99
2019-04-29T01:36:43.633Z,10.04
2019-04-29T01:37:35.922Z,10.15
2019-04-29T01:38:28.199Z,10.16
2019-04-29T01:38:54.333Z,10.07
2019-04-29T01:39:46.619Z,10.19
2019-04-29T01:41:05.066Z,10.17
2019-04-29T01:41:57.344Z,10.2
2019-04-29T01:42:23.476Z,10.13
2019-04-29T01:43:15.790Z,10.1
2019-04-29T01:44:08.092Z,10.19
2019-04-29T01:44:34.230Z,10.19
2019-04-29T01:45:26.511Z,10.22
2019-04-29T01:46:44.923Z,10.17
2019-04-29T01:47:37.199Z,10.19
2019-04-29T01:48:03.368Z,10.13
2019-04-29T01:48:55.686Z,10.17
2019-04-29T01:49:47.970Z,10.16
2019-04-29T01:50:14.111Z,10.16
2019-04-29T01:51:06.397Z,10.15
2019-04-29T01:52:24.807Z,10.25
2019-04-29T01:53:17.084Z,10.15
2019-04-29T01:53:43.231Z,10.16
2019-04-29T01:54:35.540Z,10.02
2019-04-29T01:55:27.819Z,9.95
2019-04-29T01:55:53.952Z,9.97
2019-04-29T01:56:46.234Z,9.91
2019-04-29T01:58:04.671Z,9.86
2019-04-29T01:58:56.951Z,9.77
2019-04-29T01:59:23.088Z,9.8
2019-04-29T02:00:15.375Z,9.79
2019-04-29T02:01:07.659Z,9.83
2019-04-29T02:01:33.820Z,9.76
2019-04-29T02:02:26.115Z,9.86
2019-04-29T02:03:44.519Z,9.82
2019-04-29T02:04:36.864Z,9.76
2019-04-29T02:05:03.025Z,9.82
2019-04-29T02:05:55.302Z,9.91
2019-04-29T02:06:47.611Z,9.86
2019-04-29T02:07:13.744Z,9.87
2019-04-29T02:08:06.026Z,9.92
2019-04-29T02:09:24.445Z,9.87
2019-04-29T02:10:16.728Z,9.87
2019-04-29T02:11:35.187Z,9.84
2019-04-29T02:12:27.470Z,9.74
2019-04-29T02:12:53.607Z,9.76
2019-04-29T02:13:45.926Z,9.76
2019-04-29T02:14:38.204Z,9.84
2019-04-29T02:15:04.365Z,9.86
2019-04-29T02:15:56.653Z,9.82
2019-04-29T02:17:15.073Z,9.84
2019-04-29T02:18:07.342Z,9.77
2019-04-29T02:18:33.484Z,9.8
2019-04-29T02:19:25.773Z,9.73
2019-04-29T02:20:18.084Z,9.58
2019-04-29T02:20:44.222Z,9.55
2019-04-29T02:21:36.505Z,9.43
2019-04-29T02:22:54.927Z,9.5
2019-04-29T02:23:47.232Z,9.56
2019-04-29T02:24:13.369Z,9.55
2019-04-29T02:25:05.653Z,9.64
2019-04-29T02:25:57.953Z,9.55
2019-04-29T02:26:24.102Z,9.64
2019-04-29T02:27:16.414Z,9.72
2019-04-29T02:28:34.839Z,9.68
2019-04-29T02:29:27.145Z,9.74
2019-04-29T02:29:53.279Z,9.69
2019-04-29T02:30:45.619Z,9.65
2019-04-29T02:31:37.894Z,9.73
2019-04-29T02:32:04.062Z,9.72
2019-04-29T02:32:56.361Z,9.86
2019-04-29T02:34:14.841Z,9.69
2019-04-29T02:35:07.147Z,9.74
2019-04-29T02:35:33.283Z,9.76
2019-04-29T02:36:29.624Z,9.65
2019-04-29T02:37:17.953Z,9.66
2019-04-29T02:37:44.114Z,9.65
2019-04-29T02:38:36.396Z,9.56
2019-04-29T02:39:54.836Z,9.55
2019-04-29T02:40:47.118Z,9.61
2019-04-29T02:41:13.254Z,9.55
2019-04-29T02:42:05.534Z,9.55
2019-04-29T02:42:57.817Z,9.54
2019-04-29T02:43:24.083Z,9.58
2019-04-29T02:44:16.459Z,9.41
2019-04-29T02:45:34.864Z,9.51
2019-04-29T02:46:27.195Z,9.51
2019-04-29T02:46:53.316Z,9.51
2019-04-29T02:47:45.635Z,9.59
2019-04-29T02:49:06.110Z,9.55
2019-04-29T02:50:24.585Z,9.64
2019-04-29T02:51:16.905Z,9.64
2019-04-29T02:51:43.066Z,9.56
2019-04-29T02:52:35.375Z,9.55
2019-04-29T02:53:27.651Z,9.66
2019-04-29T02:53:53.823Z,9.66
2019-04-29T02:54:46.148Z,9.65
2019-04-29T02:56:04.583Z,9.66
2019-04-29T02:56:56.948Z,9.62
2019-04-29T02:57:23.090Z,9.62
2019-04-29T02:58:15.407Z,9.66
2019-04-29T02:59:07.697Z,9.61
2019-04-29T02:59:33.830Z,9.62
2019-04-29T03:00:26.114Z,9.61
2019-04-29T03:01:44.554Z,9.65
2019-04-29T03:02:36.833Z,9.56
2019-04-29T03:03:03.003Z,9.59
2019-04-29T03:03:55.281Z,9.62
2019-04-29T03:04:47.569Z,9.54
2019-04-29T03:05:13.698Z,9.59
2019-04-29T03:06:06.049Z,9.56
2019-04-29T03:07:24.551Z,9.59
2019-04-29T03:08:16.825Z,9.51
2019-04-29T03:09:35.309Z,9.56
2019-04-29T03:10:27.605Z,9.62
2019-04-29T03:10:53.768Z,9.54
2019-04-29T03:11:46.077Z,9.51
2019-04-29T03:13:04.527Z,9.62
2019-04-29T03:13:56.811Z,9.51
2019-04-29T03:15:15.249Z,9.56
2019-04-29T03:16:07.594Z,9.56
2019-04-29T03:16:33.769Z,9.51
2019-04-29T03:17:27.072Z,9.44
2019-04-29T03:17:53.201Z,9.54
2019-04-29T03:18:45.512Z,9.41
2019-04-29T03:19:37.816Z,9.46
2019-04-29T03:20:03.956Z,9.43
2019-04-29T03:20:56.263Z,9.43
2019-04-29T03:22:14.705Z,9.22
2019-04-29T03:23:07.016Z,9.22
2019-04-29T03:23:33.151Z,9.23
2019-04-29T03:24:25.430Z,9.23
2019-04-29T03:25:17.765Z,9.18
2019-04-29T03:25:43.927Z,9.28
2019-04-29T03:26:36.258Z,9.37
2019-04-29T03:27:54.738Z,9.41
2019-04-29T03:28:47.046Z,9.44
2019-04-29T03:29:13.246Z,9.43
2019-04-29T03:30:05.703Z,9.48
2019-04-29T03:30:57.966Z,9.5
2019-04-29T03:31:24.122Z,9.47
2019-04-29T03:32:17.553Z,9.51
2019-04-29T03:32:43.677Z,9.44
2019-04-29T03:33:36.030Z,9.58
2019-04-29T03:34:54.478Z,9.51
2019-04-29T03:35:46.804Z,9.54
2019-04-29T03:37:05.282Z,9.43
2019-04-29T03:37:57.591Z,9.47
2019-04-29T03:38:23.724Z,9.54
2019-04-29T03:39:16.024Z,9.47
2019-04-29T03:40:34.503Z,9.44
2019-04-29T03:41:26.793Z,9.47
2019-04-29T03:42:46.222Z,9.41
2019-04-29T03:44:04.685Z,9.4
2019-04-29T03:44:56.986Z,9.32
2019-04-29T03:45:23.121Z,9.26
2019-04-29T03:46:15.447Z,9.23
2019-04-29T03:47:07.728Z,9.29
2019-04-29T03:47:34.761Z,9.4
2019-04-29T03:48:27.036Z,9.36
2019-04-29T03:48:53.196Z,9.34
2019-04-29T03:49:45.473Z,9.29
2019-04-29T03:50:37.803Z,9.29
2019-04-29T03:51:03.943Z,9.39
2019-04-29T03:51:56.271Z,9.37
2019-04-29T03:53:14.765Z,9.34
2019-04-29T03:54:07.160Z,9.23
2019-04-29T03:54:33.317Z,9.19
2019-04-29T03:55:38.748Z,9.26
2019-04-29T03:55:53.722Z,9.16
2019-04-29T03:56:46.016Z,9.23
2019-04-29T03:58:04.447Z,9.25
2019-04-29T03:58:56.727Z,9.25
2019-04-29T04:00:16.279Z,9.29
2019-04-29T04:01:34.789Z,9.26
2019-04-29T04:02:27.099Z,9.25
2019-04-29T04:02:53.232Z,9.22
2019-04-29T04:03:45.614Z,9.22
2019-04-29T04:04:37.894Z,9.25
2019-04-29T04:05:04.086Z,9.31
2019-04-29T04:05:56.422Z,9.25
2019-04-29T04:07:14.871Z,9.22
2019-04-29T04:08:07.200Z,9.23
2019-04-29T04:08:33.322Z,9.23
2019-04-29T04:09:27.577Z,9.28
2019-04-29T04:09:53.779Z,9.23
2019-04-29T04:10:46.065Z,9.26
2019-04-29T04:12:04.613Z,9.23
2019-04-29T04:12:56.956Z,9.25
2019-04-29T04:13:23.117Z,9.26
2019-04-29T04:14:15.504Z,9.28
2019-04-29T04:15:07.829Z,9.16
2019-04-29T04:15:33.963Z,9.25
2019-04-29T04:16:26.301Z,9.21
2019-04-29T04:17:44.825Z,9.26
2019-04-29T04:18:37.096Z,9.23
2019-04-29T04:19:03.232Z,9.21
2019-04-29T04:19:55.570Z,9.19
2019-04-29T04:20:47.927Z,9.22
2019-04-29T04:21:14.052Z,9.25
2019-04-29T04:22:06.355Z,9.16
2019-04-29T04:23:24.841Z,9.26
2019-04-29T04:24:18.125Z,9.23
2019-04-29T04:24:44.307Z,9.23
2019-04-29T04:25:36.603Z,9.34
2019-04-29T04:26:55.021Z,9.29
2019-04-29T04:27:47.326Z,9.28
2019-04-29T04:28:13.480Z,9.23
2019-04-29T04:29:05.779Z,9.31
2019-04-29T04:29:58.096Z,9.34
2019-04-29T04:30:24.253Z,9.37
2019-04-29T04:31:17.524Z,9.32
2019-04-29T04:31:43.718Z,9.4
2019-04-29T04:32:36.002Z,9.36
2019-04-29T04:33:54.454Z,9.36
2019-04-29T04:34:46.729Z,9.32
2019-04-29T04:36:05.204Z,9.36
2019-04-29T04:37:00.165Z,9.34
2019-04-29T04:37:23.671Z,9.29
2019-04-29T04:38:16.048Z,9.36
2019-04-29T04:39:34.497Z,9.4
2019-04-29T04:40:26.786Z,9.41
2019-04-29T04:41:45.248Z,9.39
2019-04-29T04:43:04.645Z,9.4
2019-04-29T04:43:57.025Z,9.46
2019-04-29T04:44:23.199Z,9.47
2019-04-29T04:45:15.502Z,9.46
2019-04-29T04:46:07.828Z,9.43
2019-04-29T04:46:33.991Z,9.41
2019-04-29T04:47:26.303Z,9.47
2019-04-29T04:48:44.784Z,9.4
2019-04-29T04:49:37.157Z,9.48
2019-04-29T04:50:03.296Z,9.5
2019-04-29T04:50:55.577Z,9.56
2019-04-29T04:51:47.881Z,9.62
2019-04-29T04:52:14.023Z,9.51
2019-04-29T04:53:06.352Z,9.58
2019-04-29T04:54:24.788Z,9.56
2019-04-29T04:55:17.106Z,9.56
2019-04-29T04:55:43.244Z,9.62
2019-04-29T04:56:35.546Z,9.61
2019-04-29T04:57:27.832Z,9.62
2019-04-29T04:57:53.966Z,9.64
2019-04-29T04:58:46.282Z,9.72
2019-04-29T05:00:04.726Z,9.64
2019-04-29T05:00:57.005Z,9.64
2019-04-29T05:01:23.135Z,9.68
2019-04-29T05:02:15.475Z,9.82
2019-04-29T05:03:07.761Z,9.76
2019-04-29T05:03:33.889Z,9.82
2019-04-29T05:04:26.176Z,9.84
2019-04-29T05:05:44.632Z,9.8
2019-04-29T05:06:36.911Z,9.86
2019-04-29T05:07:03.057Z,9.83
2019-04-29T05:07:55.359Z,9.97
2019-04-29T05:08:47.640Z,9.83
2019-04-29T05:09:13.798Z,9.8
2019-04-29T05:10:06.082Z,9.83
2019-04-29T05:11:24.524Z,9.99
2019-04-29T05:12:16.801Z,10.01
2019-04-29T05:13:37.195Z,10.04
2019-04-29T05:14:03.354Z,10.09
2019-04-29T05:14:55.629Z,10.17
2019-04-29T05:15:47.912Z,10.28
2019-04-29T05:16:14.043Z,10.33
2019-04-29T05:17:06.320Z,10.25
2019-04-29T05:18:24.758Z,10.23
2019-04-29T05:19:17.049Z,10.33
2019-04-29T05:19:43.187Z,10.26
2019-04-29T05:20:35.466Z,10.26
2019-04-29T05:21:27.808Z,10.35
2019-04-29T05:21:53.981Z,10.31
2019-04-29T05:22:46.270Z,10.4
2019-04-29T05:24:04.672Z,10.44
2019-04-29T05:24:56.988Z,10.53
2019-04-29T05:25:23.125Z,10.53
2019-04-29T05:26:15.419Z,10.42
2019-04-29T05:27:07.699Z,10.49
2019-04-29T05:27:33.824Z,10.54
2019-04-29T05:28:26.109Z,10.54
2019-04-29T05:29:44.563Z,10.61
2019-04-29T05:30:36.848Z,10.61
2019-04-29T05:31:02.987Z,10.68
2019-04-29T05:31:55.271Z,10.68
2019-04-29T05:32:47.580Z,10.75
2019-04-29T05:33:13.709Z,10.76
2019-04-29T05:34:05.995Z,10.72
2019-04-29T05:35:26.410Z,10.82
2019-04-29T05:36:46.873Z,10.86
2019-04-29T05:37:13.009Z,10.84
2019-04-29T05:38:06.294Z,10.89
2019-04-29T05:39:24.716Z,10.93
2019-04-29T05:40:17.006Z,10.92
2019-04-29T05:40:43.138Z,11.02
2019-04-29T05:41:36.446Z,10.99
2019-04-29T05:42:57.826Z,10.96
2019-04-29T05:43:26.902Z,11.02
2019-04-29T05:44:44.391Z,10.97
2019-04-29T05:45:36.672Z,11.02
2019-04-29T05:46:03.525Z,11.07
2019-04-29T05:46:56.817Z,11.08
2019-04-29T05:47:23.303Z,10.99
2019-04-29T05:48:16.573Z,11.14
2019-04-29T05:48:43.341Z,11.23
2019-04-29T05:49:37.363Z,11.25
2019-04-29T05:50:06.348Z,11.32
2019-04-29T05:50:57.969Z,11.19
2019-04-29T05:51:27.163Z,11.25
2019-04-29T05:52:17.411Z,11.4
2019-04-29T05:52:45.249Z,11.37
2019-04-29T05:54:06.502Z,11.27
2019-04-29T05:54:33.620Z,11.29
2019-04-29T05:55:25.922Z,11.36
2019-04-29T05:56:18.204Z,11.44
2019-04-29T05:56:44.333Z,11.48
2019-04-29T05:57:37.502Z,11.52
2019-04-29T05:58:04.629Z,11.57
2019-04-29T05:58:57.924Z,11.66
2019-04-29T05:59:24.436Z,11.73
2019-04-29T06:00:18.690Z,11.63
2019-04-29T06:00:45.179Z,11.7
2019-04-29T06:01:37.462Z,11.75
2019-04-29T06:02:04.590Z,11.7
2019-04-29T06:03:24.994Z,11.7
2019-04-29T06:04:48.038Z,11.75
2019-04-29T06:05:14.383Z,11.75
2019-04-29T06:06:06.661Z,11.75
2019-04-29T06:07:26.903Z,11.88
2019-04-29T06:07:56.060Z,11.95
2019-04-29T06:08:47.379Z,11.94
2019-04-29T06:09:16.535Z,12
2019-04-29T06:10:06.794Z,12.15
2019-04-29T06:10:34.889Z,12.04
2019-04-29T06:11:27.167Z,12.07
2019-04-29T06:11:53.310Z,12.24
2019-04-29T06:12:45.597Z,12.24
2019-04-29T06:13:37.906Z,12.36
2019-04-29T06:14:04.045Z,12.39
2019-04-29T06:14:56.352Z,12.35
2019-04-29T06:16:15.785Z,12.36
2019-04-29T06:17:39.906Z,12.36
2019-04-29T06:18:03.337Z,12.4
2019-04-29T06:19:00.140Z,12.43
2019-04-29T06:20:17.493Z,12.49
2019-04-29T06:20:43.230Z,12.53
2019-04-29T06:21:36.501Z,12.58
2019-04-29T06:22:55.927Z,12.58
2019-04-29T06:23:24.164Z,12.61
2019-04-29T06:24:17.338Z,12.62
2019-04-29T06:24:44.485Z,12.72
2019-04-29T06:25:36.819Z,12.67
2019-04-29T06:26:55.242Z,12.83
2019-04-29T06:27:47.574Z,12.85
2019-04-29T06:28:13.728Z,12.87
2019-04-29T06:29:07.001Z,12.83
2019-04-29T06:29:33.140Z,12.82
2019-04-29T06:30:25.871Z,13
2019-04-29T06:30:53.021Z,12.95
2019-04-29T06:31:45.316Z,13.04
2019-04-29T06:33:04.727Z,13.18
2019-04-29T06:34:00.523Z,13.28
2019-04-29T06:34:25.168Z,13.37
2019-04-29T06:35:47.330Z,13.31
2019-04-29T06:36:13.692Z,13.41
2019-04-29T06:37:05.971Z,13.38
2019-04-29T06:38:24.444Z,13.23
2019-04-29T06:39:16.821Z,13.23
2019-04-29T06:40:36.691Z,13.12
2019-04-29T06:41:55.725Z,13.18
2019-04-29T06:43:17.091Z,13.28
2019-04-29T06:43:44.250Z,13.28
2019-04-29T06:44:37.882Z,13.27
2019-04-29T06:45:05.001Z,13.25
2019-04-29T06:45:57.291Z,13.25
2019-04-29T06:46:23.420Z,13.3
2019-04-29T06:47:17.134Z,13.22
2019-04-29T06:47:43.290Z,13.39
2019-04-29T06:48:35.583Z,13.41
2019-04-29T06:49:55.989Z,13.54
2019-04-29T06:51:14.411Z,13.72
2019-04-29T06:52:07.005Z,13.81
2019-04-29T06:52:33.145Z,13.95
2019-04-29T06:53:25.449Z,14.12
2019-04-29T06:54:44.911Z,14.58
2019-04-29T06:55:37.194Z,14.69
2019-04-29T06:56:03.357Z,15.04
2019-04-29T06:56:55.668Z,15.31
2019-04-29T06:57:47.963Z,15.68
2019-04-29T06:58:14.098Z,15.84
2019-04-29T06:59:34.527Z,16.38
2019-04-29T07:01:00.582Z,16.84
2019-04-29T07:02:16.875Z,17.24
2019-04-29T07:02:45.438Z,17.29
2019-04-29T07:03:37.165Z,17.48
2019-04-29T07:04:04.293Z,17.48
2019-04-29T07:04:57.580Z,17.67
2019-04-29T07:05:23.714Z,17.78
2019-04-29T07:06:15.997Z,17.9
2019-04-29T07:07:34.540Z,17.83
2019-04-29T07:08:26.866Z,17.7
2019-04-29T07:08:53.105Z,17.72
2019-04-29T07:09:45.462Z,17.6
2019-04-29T07:11:07.969Z,17.51
2019-04-29T07:11:36.453Z,17.29
2019-04-29T07:12:56.819Z,17.39
2019-04-29T07:13:24.574Z,17.51
2019-04-29T07:14:45.520Z,17.63
2019-04-29T07:16:05.949Z,17.57
2019-04-29T07:16:33.759Z,17.65
2019-04-29T07:17:27.185Z,17.52
2019-04-29T07:17:54.312Z,17.51
2019-04-29T07:18:49.960Z,17.49
2019-04-29T07:19:14.771Z,17.54
2019-04-29T07:20:08.114Z,17.45
2019-04-29T07:20:36.993Z,17.45
2019-04-29T07:21:56.501Z,17.54
2019-04-29T07:22:25.664Z,17.63
2019-04-29T07:23:17.514Z,17.79
2019-04-29T07:23:43.649Z,17.94
2019-04-29T07:24:35.935Z,17.92
2019-04-29T07:25:55.353Z,17.95
2019-04-29T07:26:47.666Z,18.15
2019-04-29T07:27:14.935Z,18.31
2019-04-29T07:28:08.219Z,18.4
2019-04-29T07:28:34.797Z,18.63
2019-04-29T07:29:30.466Z,18.78
2019-04-29T07:29:55.282Z,19.02
2019-04-29T07:31:46.719Z,19.58
2019-04-29T07:32:13.848Z,19.52
2019-04-29T07:33:07.136Z,19.62
2019-04-29T07:33:35.006Z,19.64
2019-04-29T07:34:55.482Z,19.94
2019-04-29T07:35:49.487Z,19.96
2019-04-29T07:36:18.560Z,20.13
2019-04-29T07:36:43.110Z,20.18
2019-04-29T07:38:08.511Z,20.26
2019-04-29T07:38:40.960Z,20.39
2019-04-29T07:39:31.617Z,20.84
2019-04-29T07:39:55.138Z,20.96
2019-04-29T07:41:18.882Z,21.12
2019-04-29T07:42:37.560Z,21.32
2019-04-29T07:43:07.689Z,21.39
2019-04-29T07:43:58.020Z,21.42
2019-04-29T07:44:25.155Z,21.5
2019-04-29T07:44:54.129Z,21.33
2019-04-29T07:46:16.445Z,22.04
2019-04-29T07:46:55.984Z,22.39
2019-04-29T07:48:06.243Z,22.91
2019-04-29T07:49:27.764Z,22.96
2019-04-29T07:49:53.931Z,23.24
2019-04-29T07:50:46.339Z,23.62
2019-04-29T07:51:14.471Z,23.88
2019-04-29T07:52:09.729Z,23.99
2019-04-29T07:52:35.655Z,24.06
2019-04-29T07:53:56.129Z,24.16
2019-04-29T07:54:23.252Z,24.35
2019-04-29T07:55:16.563Z,24.43
2019-04-29T07:55:43.699Z,24.45
2019-04-29T07:56:37.767Z,24.28
2019-04-29T07:57:04.099Z,24.33
2019-04-29T07:58:27.222Z,24.84
2019-04-29T07:59:47.051Z,25.1
2019-04-29T08:00:14.605Z,25.08
2019-04-29T08:01:07.942Z,25.06
2019-04-29T08:01:35.079Z,25.04
2019-04-29T08:02:54.506Z,25.26
2019-04-29T08:03:46.806Z,25.21
2019-04-29T08:05:05.473Z,25.14
2019-04-29T08:05:57.779Z,25.59
2019-04-29T08:06:23.947Z,25.77
2019-04-29T08:07:17.263Z,26.02
2019-04-29T08:07:43.408Z,26.15
2019-04-29T08:08:36.708Z,26.33
2019-04-29T08:09:07.820Z,26.15
2019-04-29T08:10:28.508Z,25.91
2019-04-29T08:10:56.645Z,25.81
2019-04-29T08:12:14.641Z,25.59
2019-04-29T08:13:06.935Z,25.87
2019-04-29T08:13:33.078Z,25.96
2019-04-29T08:14:25.369Z,26.03
2019-04-29T08:15:45.846Z,26.03
2019-04-29T08:16:38.165Z,26.37
2019-04-29T08:17:04.314Z,26.07
2019-04-29T08:18:06.201Z,25.7
2019-04-29T08:18:25.718Z,25.8
2019-04-29T08:19:18.065Z,26.34
2019-04-29T08:19:45.197Z,26.55
2019-04-29T08:20:39.652Z,26.68
2019-04-29T08:21:04.945Z,26.68
2019-04-29T08:22:27.595Z,26.23
2019-04-29T08:22:53.115Z,26.02
2019-04-29T08:23:47.009Z,26.09
2019-04-29T08:24:15.749Z,26.05
2019-04-29T08:25:36.541Z,26.4
2019-04-29T08:26:04.501Z,26.51
2019-04-29T08:27:24.508Z,26.41
2019-04-29T08:28:16.824Z,26.65
2019-04-29T08:28:43.357Z,26.74
2019-04-29T08:29:37.404Z,26.71
2019-04-29T08:30:06.611Z,26.66
2019-04-29T08:31:25.505Z,26.73
2019-04-29T08:32:46.133Z,26.22
2019-04-29T08:34:06.116Z,26.84
2019-04-29T08:34:33.245Z,27
2019-04-29T08:35:26.547Z,27.05
2019-04-29T08:35:53.677Z,27
2019-04-29T08:36:45.971Z,27.17
2019-04-29T08:38:04.446Z,27.03
2019-04-29T08:39:07.902Z,26.84
2019-04-29T08:39:24.964Z,26.93
2019-04-29T08:40:49.901Z,26.88
2019-04-29T08:42:09.065Z,27.6
2019-04-29T08:42:37.216Z,27.83
2019-04-29T08:44:01.685Z,27.93
2019-04-29T08:44:23.322Z,27.93
2019-04-29T08:45:16.699Z,28.22
2019-04-29T08:45:43.833Z,27.95
2019-04-29T08:46:36.128Z,27.78
2019-04-29T08:47:55.626Z,27.78
2019-04-29T08:48:47.941Z,27.85
2019-04-29T08:49:15.074Z,27.78
2019-04-29T08:50:07.390Z,26.85
2019-04-29T08:50:33.532Z,26.88
2019-04-29T08:51:25.846Z,26.71
2019-04-29T08:52:18.142Z,26.83
2019-04-29T08:52:44.283Z,26.89
2019-04-29T08:53:36.580Z,26.96
2019-04-29T08:54:57.325Z,26.48
2019-04-29T08:55:26.498Z,26.37
2019-04-29T08:57:01.580Z,26.81
2019-04-29T08:57:13.081Z,27
2019-04-29T08:58:06.819Z,26.92
2019-04-29T08:58:33.228Z,27.02
2019-04-29T08:59:26.299Z,27.42
2019-04-29T09:00:44.750Z,27.9
2019-04-29T09:02:10.065Z,28.42
2019-04-29T09:02:35.534Z,28.48
2019-04-29T09:03:39.533Z,28.56
2019-04-29T09:03:57.919Z,28.44
2019-04-29T09:04:23.254Z,28.54
2019-04-29T09:05:46.030Z,28.7
2019-04-29T09:07:12.233Z,28.69
2019-04-29T09:07:33.681Z,28.64
2019-04-29T09:08:28.730Z,28.42
2019-04-29T09:08:57.454Z,28.45
2019-04-29T09:09:28.957Z,28.42
2019-04-29T09:10:17.592Z,28.51
2019-04-29T09:10:44.728Z,28.67
2019-04-29T09:11:38.060Z,28.64
2019-04-29T09:12:04.636Z,28.7
2019-04-29T09:12:57.919Z,28.93
2019-04-29T09:13:24.073Z,29.02
2019-04-29T09:14:16.353Z,29.31
2019-04-29T09:15:34.788Z,29.29
2019-04-29T09:16:27.098Z,29.32
2019-04-29T09:16:53.242Z,29.27
2019-04-29T09:17:45.598Z,29.45
2019-04-29T09:18:37.891Z,29.57
2019-04-29T09:19:04.033Z,29.54
2019-04-29T09:19:56.353Z,29.54
2019-04-29T09:21:14.861Z,29.2
2019-04-29T09:22:07.161Z,28.56
2019-04-29T09:22:33.310Z,28.22
2019-04-29T09:23:25.615Z,27.98
2019-04-29T09:24:17.905Z,27.44
2019-04-29T09:24:48.095Z,27.45
2019-04-29T09:26:04.724Z,27.59
2019-04-29T09:26:57.018Z,27.1
2019-04-29T09:27:24.163Z,26.77
2019-04-29T09:28:19.094Z,26.62
2019-04-29T09:28:44.568Z,26.44
2019-04-29T09:29:36.954Z,26.4
2019-04-29T09:30:04.117Z,26.28
2019-04-29T09:30:57.403Z,25.81
2019-04-29T09:31:23.549Z,25.83
2019-04-29T09:32:16.831Z,25.62
2019-04-29T09:32:43.964Z,25.59
2019-04-29T09:33:37.243Z,25.81
2019-04-29T09:34:06.625Z,25.59
2019-04-29T09:34:34.478Z,25.55
2019-04-29T09:35:28.732Z,25.59
2019-04-29T09:35:54.929Z,25.51
2019-04-29T09:36:49.698Z,25.48
2019-04-29T09:37:18.513Z,25.62
2019-04-29T09:38:36.781Z,25.31
2019-04-29T09:39:56.199Z,25.41
2019-04-29T09:41:15.645Z,25.4
2019-04-29T09:42:12.847Z,25.62
2019-04-29T09:42:35.858Z,25.69
2019-04-29T09:43:14.761Z,25.99
2019-04-29T09:43:59.145Z,26.07
2019-04-29T09:44:25.151Z,26.16
2019-04-29T09:45:45.441Z,26.34
2019-04-29T09:47:08.422Z,26.03
2019-04-29T09:47:33.816Z,26.05
2019-04-29T09:48:26.110Z,26.16
2019-04-29T09:49:44.550Z,26.05
2019-04-29T09:50:38.983Z,26.31
2019-04-29T09:51:16.571Z,26.26
2019-04-29T09:52:24.527Z,25.73
2019-04-29T09:53:16.839Z,25.81
2019-04-29T09:54:35.305Z,25.54
2019-04-29T09:55:54.757Z,25.54
2019-04-29T09:56:47.067Z,25.46
2019-04-29T09:57:13.213Z,25.48
2019-04-29T09:58:05.507Z,25.62
2019-04-29T09:58:57.833Z,25.72
2019-04-29T09:59:23.978Z,25.77
2019-04-29T10:00:17.260Z,25.25
2019-04-29T10:00:44.441Z,25.13
2019-04-29T10:01:37.781Z,24.74
2019-04-29T10:02:04.929Z,24.53
2019-04-29T10:02:58.214Z,24.42
2019-04-29T10:03:24.370Z,24.14
2019-04-29T10:04:16.704Z,23.95
2019-04-29T10:05:36.144Z,23.98
2019-04-29T10:06:54.647Z,24.17
2019-04-29T10:07:46.932Z,24.21
2019-04-29T10:08:13.085Z,24.28
2019-04-29T10:09:05.370Z,24.21
2019-04-29T10:10:01.853Z,23.95
2019-04-29T10:10:25.813Z,23.86
2019-04-29T10:11:45.239Z,23.88
2019-04-29T10:12:37.534Z,24.05
2019-04-29T10:13:04.550Z,24.17
2019-04-29T10:13:56.837Z,24.16
2019-04-29T10:15:15.394Z,24.21
2019-04-29T10:16:07.713Z,24.01
2019-04-29T10:16:35.862Z,23.98
2019-04-29T10:17:27.188Z,23.55
2019-04-29T10:17:55.986Z,23.23
2019-04-29T10:18:47.616Z,22.88
2019-04-29T10:19:15.743Z,22.88
2019-04-29T10:20:08.305Z,22.94
2019-04-29T10:20:34.232Z,22.96
2019-04-29T10:21:27.082Z,23.02
2019-04-29T10:21:53.226Z,23.08
2019-04-29T10:22:45.521Z,22.85
2019-04-29T10:23:37.814Z,22.87
2019-04-29T10:24:03.964Z,22.91
2019-04-29T10:24:56.522Z,22.85
2019-04-29T10:26:14.950Z,22.96
2019-04-29T10:27:07.472Z,22.78
2019-04-29T10:27:33.582Z,22.66
2019-04-29T10:28:25.871Z,22.85
2019-04-29T10:29:19.920Z,22.9
2019-04-29T10:29:46.305Z,22.9
2019-04-29T10:31:06.163Z,22.72
2019-04-29T10:32:25.607Z,22.65
2019-04-29T10:33:46.025Z,22.36
2019-04-29T10:35:08.635Z,22.33
2019-04-29T10:36:27.965Z,22.11
2019-04-29T10:36:54.108Z,22.06
2019-04-29T10:37:47.391Z,22.1
2019-04-29T10:38:14.514Z,22.2
2019-04-29T10:39:06.842Z,22.25
2019-04-29T10:39:34.685Z,22.36
2019-04-29T10:40:27.968Z,22.18
2019-04-29T10:40:56.435Z,22.06
2019-04-29T10:42:14.526Z,22.17
2019-04-29T10:43:06.801Z,22.44
2019-04-29T10:44:26.257Z,22.39
2019-04-29T10:44:53.283Z,22.54
2019-04-29T10:45:45.573Z,22.57
2019-04-29T10:46:37.893Z,22.15
2019-04-29T10:47:04.038Z,22.17
2019-04-29T10:47:56.326Z,22.14
2019-04-29T10:49:14.809Z,22.11
2019-04-29T10:50:36.230Z,21.99
2019-04-29T10:51:57.883Z,22.22